Impacts TAF Board INFO
FOR SITUATIONAL AWARENESS. NOT TO BE USED FOR FLIGHT PLANNING PURPOSES.
IDs:

KEWR - Newark Intl, NJ, US

Issued at 1734 UTC 21 Sep 2017
Updated at 1735 UTC 21 Sep 2017
Potential Impact None Slight Moderate High
Time1651Z 21/18Z 21/19Z 21/20Z 21/21Z 21/22Z 21/23Z 22/00Z 22/01Z 22/02Z 22/03Z 22/04Z 22/05Z 22/06Z>>
Type OBS PRVL PRVL PRVL PRVL PRVL PRVL PRVL PRVL PRVL PRVL PRVL PRVL PRVL
VIS 10 >6 >6 >6 >6 >6 >6 >6 >6 >6 >6 >6 >6 >6
CIG 260 250 250 250 250 250 250 250 250 250 250 250 250 250
Cover BKN BKN BKN BKN BKN BKN BKN BKN BKN BKN BKN BKN BKN BKN
FltCat VFR VFR VFR VFR VFR VFR VFR VFR VFR VFR VFR VFR VFR VFR
WX -- -- -- -- -- -- -- -- -- -- -- -- -- --
WDir 350 360 360 360 360 360 360 360 360 360 360 360 350 350
WSpd 10 11 11 11 11 11 10 10 10 10 10 10 12 12
WGst -- 18 18 18 18 18 -- -- -- -- -- -- -- --

Raw TAF
KEWR 211734Z 2118/2224 36011G18KT P6SM FEW040 BKN250
  FM212300 36010KT P6SM SCT050 BKN250
  FM220500 35012KT P6SM BKN250
  FM221300 36014KT P6SM BKN100


Raw METAR
KEWR 211651Z 35010KT 10SM FEW040 FEW120 SCT210 BKN260 28/17 A3000 RMK AO2 SLP158 T02830172
KEWR 211551Z 34014KT 10SM FEW040 FEW120 SCT200 BKN260 27/17 A3001 RMK AO2 SLP162 T02670172
KEWR 211451Z 35010KT 10SM FEW040 SCT200 BKN260 24/17 A3002 RMK AO2 SLP166 T02440172 51007

METAR Board
Radar Display
Forecast Discussion

FOR SITUATIONAL AWARENESS. NOT TO BE USED FOR FLIGHT PLANNING PURPOSES.